sensor_id;sensor_type;location;lat;lon;timestamp;pressure;altitude;pressure_sealevel;temperature
75353;BMP280;76704;51.574;7.088;2024-03-29T00:01:42;65749.50;;;13.48
75353;BMP280;76704;51.574;7.088;2024-03-29T00:04:10;65877.66;;;13.53
75353;BMP280;76704;51.574;7.088;2024-03-29T00:06:39;65550.31;;;13.41
75353;BMP280;76704;51.574;7.088;2024-03-29T00:09:06;65619.47;;;13.47
75353;BMP280;76704;51.574;7.088;2024-03-29T00:11:33;65791.91;;;13.48
75353;BMP280;76704;51.574;7.088;2024-03-29T00:14:00;65557.63;;;13.43
75353;BMP280;76704;51.574;7.088;2024-03-29T00:16:26;65813.31;;;13.42
75353;BMP280;76704;51.574;7.088;2024-03-29T00:18:52;65676.69;;;13.48
75353;BMP280;76704;51.574;7.088;2024-03-29T00:21:18;65882.28;;;13.50
75353;BMP280;76704;51.574;7.088;2024-03-29T00:23:45;65752.19;;;13.48
75353;BMP280;76704;51.574;7.088;2024-03-29T00:26:14;66002.13;;;13.52
75353;BMP280;76704;51.574;7.088;2024-03-29T00:28:41;66149.78;;;13.55
75353;BMP280;76704;51.574;7.088;2024-03-29T00:31:07;66039.44;;;13.54
75353;BMP280;76704;51.574;7.088;2024-03-29T00:33:33;66134.19;;;13.55
75353;BMP280;76704;51.574;7.088;2024-03-29T00:36:01;66156.38;;;13.53
75353;BMP280;76704;51.574;7.088;2024-03-29T00:38:29;66049.66;;;13.54
75353;BMP280;76704;51.574;7.088;2024-03-29T00:40:55;65858.88;;;13.48
75353;BMP280;76704;51.574;7.088;2024-03-29T00:43:22;66032.34;;;13.50
75353;BMP280;76704;51.574;7.088;2024-03-29T00:45:49;66037.47;;;13.52
75353;BMP280;76704;51.574;7.088;2024-03-29T00:48:16;65862.31;;;13.51
75353;BMP280;76704;51.574;7.088;2024-03-29T00:50:45;65744.44;;;13.46
75353;BMP280;76704;51.574;7.088;2024-03-29T00:53:21;65740.03;;;13.47
75353;BMP280;76704;51.574;7.088;2024-03-29T00:56:01;65706.91;;;13.40
75353;BMP280;76704;51.574;7.088;2024-03-29T00:58:42;65912.00;;;13.47
75353;BMP280;76704;51.574;7.088;2024-03-29T01:01:27;65649.66;;;13.44
75353;BMP280;76704;51.574;7.088;2024-03-29T01:04:09;65625.78;;;13.42
75353;BMP280;76704;51.574;7.088;2024-03-29T01:06:36;65920.50;;;13.48
75353;BMP280;76704;51.574;7.088;2024-03-29T01:09:04;65811.16;;;13.42
75353;BMP280;76704;51.574;7.088;2024-03-29T01:11:32;65842.34;;;13.47
75353;BMP280;76704;51.574;7.088;2024-03-29T01:13:59;65876.91;;;13.44
75353;BMP280;76704;51.574;7.088;2024-03-29T01:16:26;65856.97;;;13.46
75353;BMP280;76704;51.574;7.088;2024-03-29T01:18:53;65913.44;;;13.43
75353;BMP280;76704;51.574;7.088;2024-03-29T01:21:19;65991.16;;;13.43
75353;BMP280;76704;51.574;7.088;2024-03-29T01:23:45;66064.25;;;13.47
75353;BMP280;76704;51.574;7.088;2024-03-29T01:26:14;65995.03;;;13.41
75353;BMP280;76704;51.574;7.088;2024-03-29T01:28:43;66257.22;;;13.52
75353;BMP280;76704;51.574;7.088;2024-03-29T01:31:09;65933.44;;;13.47
75353;BMP280;76704;51.574;7.088;2024-03-29T01:33:38;66025.50;;;13.48
75353;BMP280;76704;51.574;7.088;2024-03-29T01:36:15;66109.81;;;13.47
75353;BMP280;76704;51.574;7.088;2024-03-29T01:38:42;66153.41;;;13.50
75353;BMP280;76704;51.574;7.088;2024-03-29T01:41:12;66334.94;;;13.52
75353;BMP280;76704;51.574;7.088;2024-03-29T01:43:40;66181.41;;;13.49
75353;BMP280;76704;51.574;7.088;2024-03-29T01:46:07;66296.06;;;13.37
75353;BMP280;76704;51.574;7.088;2024-03-29T01:48:35;66169.28;;;13.53
75353;BMP280;76704;51.574;7.088;2024-03-29T01:51:02;65865.00;;;13.46
75353;BMP280;76704;51.574;7.088;2024-03-29T01:53:29;65964.13;;;13.46
75353;BMP280;76704;51.574;7.088;2024-03-29T01:55:56;65970.47;;;13.47
75353;BMP280;76704;51.574;7.088;2024-03-29T01:58:25;66380.00;;;13.52
75353;BMP280;76704;51.574;7.088;2024-03-29T02:00:53;66653.75;;;13.60
75353;BMP280;76704;51.574;7.088;2024-03-29T02:03:22;66578.91;;;13.58
75353;BMP280;76704;51.574;7.088;2024-03-29T02:05:49;66294.97;;;13.55
75353;BMP280;76704;51.574;7.088;2024-03-29T02:08:16;66419.28;;;13.56
75353;BMP280;76704;51.574;7.088;2024-03-29T02:10:46;66676.94;;;13.46
75353;BMP280;76704;51.574;7.088;2024-03-29T02:13:14;66686.69;;;13.64
75353;BMP280;76704;51.574;7.088;2024-03-29T02:15:40;66346.91;;;13.56
75353;BMP280;76704;51.574;7.088;2024-03-29T02:18:09;66743.47;;;13.64
75353;BMP280;76704;51.574;7.088;2024-03-29T02:20:38;66800.78;;;13.65
75353;BMP280;76704;51.574;7.088;2024-03-29T02:23:14;66700.59;;;13.64
75353;BMP280;76704;51.574;7.088;2024-03-29T02:25:43;67026.50;;;13.66
75353;BMP280;76704;51.574;7.088;2024-03-29T02:28:10;67081.75;;;13.73
75353;BMP280;76704;51.574;7.088;2024-03-29T02:30:37;67329.75;;;13.77
75353;BMP280;76704;51.574;7.088;2024-03-29T02:33:04;67472.72;;;13.81
75353;BMP280;76704;51.574;7.088;2024-03-29T02:35:31;67406.66;;;13.82
75353;BMP280;76704;51.574;7.088;2024-03-29T02:37:57;67794.13;;;13.88
75353;BMP280;76704;51.574;7.088;2024-03-29T02:40:24;67685.31;;;13.87
75353;BMP280;76704;51.574;7.088;2024-03-29T02:42:52;67888.03;;;13.88
75353;BMP280;76704;51.574;7.088;2024-03-29T02:45:19;67947.94;;;13.92
75353;BMP280;76704;51.574;7.088;2024-03-29T02:47:46;68201.41;;;13.98
75353;BMP280;76704;51.574;7.088;2024-03-29T02:50:14;68278.94;;;14.04
75353;BMP280;76704;51.574;7.088;2024-03-29T02:52:41;68525.72;;;14.06
75353;BMP280;76704;51.574;7.088;2024-03-29T02:55:09;68457.81;;;13.92
75353;BMP280;76704;51.574;7.088;2024-03-29T02:57:38;68377.97;;;14.09
75353;BMP280;76704;51.574;7.088;2024-03-29T03:00:06;68588.38;;;14.10
75353;BMP280;76704;51.574;7.088;2024-03-29T03:02:37;68415.91;;;14.12
75353;BMP280;76704;51.574;7.088;2024-03-29T03:05:06;68614.56;;;14.12
75353;BMP280;76704;51.574;7.088;2024-03-29T03:07:34;68634.25;;;14.15
75353;BMP280;76704;51.574;7.088;2024-03-29T03:10:24;68390.06;;;14.13
75353;BMP280;76704;51.574;7.088;2024-03-29T03:13:39;68120.56;;;14.04
75353;BMP280;76704;51.574;7.088;2024-03-29T03:16:37;68010.53;;;14.04
75353;BMP280;76704;51.574;7.088;2024-03-29T03:19:11;68197.09;;;14.08
75353;BMP280;76704;51.574;7.088;2024-03-29T03:21:38;67850.84;;;13.99
75353;BMP280;76704;51.574;7.088;2024-03-29T03:24:04;68132.31;;;14.05
75353;BMP280;76704;51.574;7.088;2024-03-29T03:26:30;67843.97;;;13.98
75353;BMP280;76704;51.574;7.088;2024-03-29T03:28:57;67985.88;;;14.03
75353;BMP280;76704;51.574;7.088;2024-03-29T03:31:24;68232.63;;;14.06
75353;BMP280;76704;51.574;7.088;2024-03-29T03:33:52;68585.53;;;14.12
75353;BMP280;76704;51.574;7.088;2024-03-29T03:36:19;68533.88;;;14.14
75353;BMP280;76704;51.574;7.088;2024-03-29T03:38:46;68860.19;;;14.18
75353;BMP280;76704;51.574;7.088;2024-03-29T03:41:12;68994.69;;;14.24
75353;BMP280;76704;51.574;7.088;2024-03-29T03:43:40;69124.03;;;14.27
75353;BMP280;76704;51.574;7.088;2024-03-29T03:46:07;69015.56;;;14.26
75353;BMP280;76704;51.574;7.088;2024-03-29T03:48:35;69247.88;;;14.33
75353;BMP280;76704;51.574;7.088;2024-03-29T03:51:04;69122.25;;;14.31
75353;BMP280;76704;51.574;7.088;2024-03-29T03:53:31;69179.16;;;14.31
75353;BMP280;76704;51.574;7.088;2024-03-29T03:55:58;69368.16;;;14.35
75353;BMP280;76704;51.574;7.088;2024-03-29T03:58:25;69663.47;;;14.40
75353;BMP280;76704;51.574;7.088;2024-03-29T04:00:51;69776.25;;;14.42
75353;BMP280;76704;51.574;7.088;2024-03-29T04:03:17;69727.97;;;14.40
75353;BMP280;76704;51.574;7.088;2024-03-29T04:05:44;69810.66;;;14.42
75353;BMP280;76704;51.574;7.088;2024-03-29T04:08:10;69838.56;;;14.43
75353;BMP280;76704;51.574;7.088;2024-03-29T04:10:40;69762.28;;;14.42
75353;BMP280;76704;51.574;7.088;2024-03-29T04:13:07;69771.38;;;14.43
75353;BMP280;76704;51.574;7.088;2024-03-29T04:15:33;69806.94;;;14.41
75353;BMP280;76704;51.574;7.088;2024-03-29T04:18:00;69725.38;;;14.37
75353;BMP280;76704;51.574;7.088;2024-03-29T04:20:28;69751.13;;;14.39
75353;BMP280;76704;51.574;7.088;2024-03-29T04:22:55;69529.75;;;14.38
75353;BMP280;76704;51.574;7.088;2024-03-29T04:25:22;69538.53;;;14.33
75353;BMP280;76704;51.574;7.088;2024-03-29T04:27:49;69507.84;;;14.35
75353;BMP280;76704;51.574;7.088;2024-03-29T04:30:15;69552.03;;;14.31
75353;BMP280;76704;51.574;7.088;2024-03-29T04:32:42;69530.03;;;14.30
75353;BMP280;76704;51.574;7.088;2024-03-29T04:35:08;69377.03;;;14.27
75353;BMP280;76704;51.574;7.088;2024-03-29T04:37:34;69503.81;;;14.28
75353;BMP280;76704;51.574;7.088;2024-03-29T04:40:01;69359.97;;;14.24
75353;BMP280;76704;51.574;7.088;2024-03-29T04:42:30;69289.22;;;14.20
75353;BMP280;76704;51.574;7.088;2024-03-29T04:44:56;69367.63;;;14.21
75353;BMP280;76704;51.574;7.088;2024-03-29T04:47:22;69342.44;;;14.20
75353;BMP280;76704;51.574;7.088;2024-03-29T04:49:48;69299.06;;;14.17
75353;BMP280;76704;51.574;7.088;2024-03-29T04:52:15;69080.09;;;14.13
75353;BMP280;76704;51.574;7.088;2024-03-29T04:54:42;68790.63;;;13.92
75353;BMP280;76704;51.574;7.088;2024-03-29T04:57:11;68819.63;;;14.02
75353;BMP280;76704;51.574;7.088;2024-03-29T04:59:40;68826.66;;;14.01
75353;BMP280;76704;51.574;7.088;2024-03-29T05:02:06;68754.56;;;13.93
75353;BMP280;76704;51.574;7.088;2024-03-29T05:04:32;68743.06;;;13.98
75353;BMP280;76704;51.574;7.088;2024-03-29T05:06:59;68760.31;;;13.96
75353;BMP280;76704;51.574;7.088;2024-03-29T05:09:26;68657.94;;;13.93
75353;BMP280;76704;51.574;7.088;2024-03-29T05:11:54;68648.63;;;13.76
75353;BMP280;76704;51.574;7.088;2024-03-29T05:14:21;68636.09;;;13.90
75353;BMP280;76704;51.574;7.088;2024-03-29T05:16:48;68640.44;;;13.89
75353;BMP280;76704;51.574;7.088;2024-03-29T05:19:16;68501.16;;;13.84
75353;BMP280;76704;51.574;7.088;2024-03-29T05:21:44;68518.41;;;13.83
75353;BMP280;76704;51.574;7.088;2024-03-29T05:24:10;68305.06;;;13.79
75353;BMP280;76704;51.574;7.088;2024-03-29T05:26:37;68166.19;;;13.77
75353;BMP280;76704;51.574;7.088;2024-03-29T05:29:03;68051.28;;;13.69
75353;BMP280;76704;51.574;7.088;2024-03-29T05:31:31;68039.41;;;13.70
75353;BMP280;76704;51.574;7.088;2024-03-29T05:33:58;68110.16;;;13.71
75353;BMP280;76704;51.574;7.088;2024-03-29T05:36:27;67951.03;;;13.68
75353;BMP280;76704;51.574;7.088;2024-03-29T05:38:54;67837.69;;;13.62
75353;BMP280;76704;51.574;7.088;2024-03-29T05:41:21;67825.13;;;13.57
75353;BMP280;76704;51.574;7.088;2024-03-29T05:43:48;67746.00;;;13.61
75353;BMP280;76704;51.574;7.088;2024-03-29T05:46:15;67709.81;;;13.57
75353;BMP280;76704;51.574;7.088;2024-03-29T05:48:43;67563.69;;;13.53
75353;BMP280;76704;51.574;7.088;2024-03-29T05:51:10;67422.63;;;13.46
75353;BMP280;76704;51.574;7.088;2024-03-29T05:53:37;67399.50;;;13.47
75353;BMP280;76704;51.574;7.088;2024-03-29T05:56:03;67277.03;;;13.42
75353;BMP280;76704;51.574;7.088;2024-03-29T05:58:30;67279.56;;;13.37
75353;BMP280;76704;51.574;7.088;2024-03-29T06:00:57;67188.28;;;13.39
75353;BMP280;76704;51.574;7.088;2024-03-29T06:03:23;67153.13;;;13.36
75353;BMP280;76704;51.574;7.088;2024-03-29T06:05:50;67165.50;;;13.35
75353;BMP280;76704;51.574;7.088;2024-03-29T06:08:17;67117.47;;;13.33
75353;BMP280;76704;51.574;7.088;2024-03-29T06:10:43;67019.97;;;13.32
75353;BMP280;76704;51.574;7.088;2024-03-29T06:13:10;66984.56;;;13.26
75353;BMP280;76704;51.574;7.088;2024-03-29T06:15:54;66947.03;;;13.26
75353;BMP280;76704;51.574;7.088;2024-03-29T06:18:40;66851.75;;;13.24
75353;BMP280;76704;51.574;7.088;2024-03-29T06:21:06;66894.63;;;13.24
75353;BMP280;76704;51.574;7.088;2024-03-29T06:23:32;66902.19;;;13.24
75353;BMP280;76704;51.574;7.088;2024-03-29T06:25:59;66850.97;;;13.21
75353;BMP280;76704;51.574;7.088;2024-03-29T06:28:26;66852.66;;;13.20
75353;BMP280;76704;51.574;7.088;2024-03-29T06:30:53;66880.44;;;13.21
75353;BMP280;76704;51.574;7.088;2024-03-29T06:33:20;66882.81;;;13.18
75353;BMP280;76704;51.574;7.088;2024-03-29T06:35:53;66830.44;;;13.16
75353;BMP280;76704;51.574;7.088;2024-03-29T06:38:21;66968.25;;;13.14
75353;BMP280;76704;51.574;7.088;2024-03-29T06:40:47;67018.97;;;13.17
75353;BMP280;76704;51.574;7.088;2024-03-29T06:43:14;67045.63;;;13.11
75353;BMP280;76704;51.574;7.088;2024-03-29T06:45:40;67043.28;;;13.14
75353;BMP280;76704;51.574;7.088;2024-03-29T06:48:10;67150.56;;;13.20
75353;BMP280;76704;51.574;7.088;2024-03-29T06:50:37;67064.50;;;13.17
75353;BMP280;76704;51.574;7.088;2024-03-29T06:53:06;67100.50;;;13.15
75353;BMP280;76704;51.574;7.088;2024-03-29T06:55:35;67135.34;;;13.15
75353;BMP280;76704;51.574;7.088;2024-03-29T06:58:04;67034.25;;;13.13
75353;BMP280;76704;51.574;7.088;2024-03-29T07:00:30;67030.56;;;13.12
75353;BMP280;76704;51.574;7.088;2024-03-29T07:02:56;67094.88;;;13.12
75353;BMP280;76704;51.574;7.088;2024-03-29T07:05:24;67192.66;;;13.08
75353;BMP280;76704;51.574;7.088;2024-03-29T07:07:50;67260.47;;;13.12
75353;BMP280;76704;51.574;7.088;2024-03-29T07:10:17;67326.09;;;13.16
75353;BMP280;76704;51.574;7.088;2024-03-29T07:12:43;67385.53;;;13.16
75353;BMP280;76704;51.574;7.088;2024-03-29T07:15:10;67480.69;;;13.12
75353;BMP280;76704;51.574;7.088;2024-03-29T07:17:37;67530.25;;;13.16
75353;BMP280;76704;51.574;7.088;2024-03-29T07:20:04;67565.56;;;13.17
75353;BMP280;76704;51.574;7.088;2024-03-29T07:22:31;67655.84;;;13.22
75353;BMP280;76704;51.574;7.088;2024-03-29T07:24:58;67703.25;;;13.18
75353;BMP280;76704;51.574;7.088;2024-03-29T07:27:25;67739.94;;;13.23
75353;BMP280;76704;51.574;7.088;2024-03-29T07:29:52;67657.84;;;13.15
75353;BMP280;76704;51.574;7.088;2024-03-29T07:32:19;67309.22;;;13.12
75353;BMP280;76704;51.574;7.088;2024-03-29T07:34:45;67497.75;;;13.13
75353;BMP280;76704;51.574;7.088;2024-03-29T07:37:11;67490.22;;;13.14
75353;BMP280;76704;51.574;7.088;2024-03-29T07:39:42;67689.34;;;13.18
75353;BMP280;76704;51.574;7.088;2024-03-29T07:42:09;67763.88;;;13.17
75353;BMP280;76704;51.574;7.088;2024-03-29T07:44:35;67883.84;;;13.19
75353;BMP280;76704;51.574;7.088;2024-03-29T07:47:01;67976.97;;;13.21
75353;BMP280;76704;51.574;7.088;2024-03-29T07:49:27;68091.56;;;13.23
75353;BMP280;76704;51.574;7.088;2024-03-29T07:51:54;68215.75;;;13.27
75353;BMP280;76704;51.574;7.088;2024-03-29T07:54:20;68303.84;;;13.24
75353;BMP280;76704;51.574;7.088;2024-03-29T07:56:47;68356.28;;;13.25
75353;BMP280;76704;51.574;7.088;2024-03-29T07:59:13;68467.47;;;13.32
75353;BMP280;76704;51.574;7.088;2024-03-29T08:01:41;68529.66;;;13.32
75353;BMP280;76704;51.574;7.088;2024-03-29T08:04:10;68537.56;;;13.35
75353;BMP280;76704;51.574;7.088;2024-03-29T08:06:37;68441.03;;;13.35
75353;BMP280;76704;51.574;7.088;2024-03-29T08:09:03;68520.72;;;13.29
75353;BMP280;76704;51.574;7.088;2024-03-29T08:11:30;68659.00;;;13.30
75353;BMP280;76704;51.574;7.088;2024-03-29T08:13:56;68735.97;;;13.35
75353;BMP280;76704;51.574;7.088;2024-03-29T08:16:23;69141.56;;;13.46
75353;BMP280;76704;51.574;7.088;2024-03-29T08:18:49;68919.66;;;13.41
75353;BMP280;76704;51.574;7.088;2024-03-29T08:21:16;69209.22;;;13.44
75353;BMP280;76704;51.574;7.088;2024-03-29T08:23:42;69183.31;;;13.48
75353;BMP280;76704;51.574;7.088;2024-03-29T08:26:12;69252.56;;;13.47
75353;BMP280;76704;51.574;7.088;2024-03-29T08:28:39;69157.00;;;13.48
75353;BMP280;76704;51.574;7.088;2024-03-29T08:31:07;69288.97;;;13.49
75353;BMP280;76704;51.574;7.088;2024-03-29T08:33:36;69389.88;;;13.48
75353;BMP280;76704;51.574;7.088;2024-03-29T08:36:05;69513.66;;;13.53
75353;BMP280;76704;51.574;7.088;2024-03-29T08:38:33;69502.91;;;13.53
75353;BMP280;76704;51.574;7.088;2024-03-29T08:41:00;69488.97;;;13.53
75353;BMP280;76704;51.574;7.088;2024-03-29T08:43:28;68996.81;;;13.43
75353;BMP280;76704;51.574;7.088;2024-03-29T08:45:54;69435.91;;;13.51
75353;BMP280;76704;51.574;7.088;2024-03-29T08:48:22;69663.91;;;13.53
75353;BMP280;76704;51.574;7.088;2024-03-29T08:50:49;69922.91;;;13.60
75353;BMP280;76704;51.574;7.088;2024-03-29T08:53:15;70169.75;;;13.62
75353;BMP280;76704;51.574;7.088;2024-03-29T08:55:41;70593.69;;;13.73
75353;BMP280;76704;51.574;7.088;2024-03-29T08:58:08;70818.72;;;13.72
75353;BMP280;76704;51.574;7.088;2024-03-29T09:00:35;70958.25;;;13.77
75353;BMP280;76704;51.574;7.088;2024-03-29T09:03:02;71196.63;;;13.87
75353;BMP280;76704;51.574;7.088;2024-03-29T09:05:28;71457.19;;;13.87
75353;BMP280;76704;51.574;7.088;2024-03-29T09:07:55;71595.25;;;13.95
75353;BMP280;76704;51.574;7.088;2024-03-29T09:10:23;71845.66;;;14.01
75353;BMP280;76704;51.574;7.088;2024-03-29T09:12:53;72020.91;;;14.04
75353;BMP280;76704;51.574;7.088;2024-03-29T09:15:20;71989.19;;;14.05
75353;BMP280;76704;51.574;7.088;2024-03-29T09:17:47;72007.47;;;14.04
75353;BMP280;76704;51.574;7.088;2024-03-29T09:20:14;72191.31;;;14.10
75353;BMP280;76704;51.574;7.088;2024-03-29T09:22:40;72355.31;;;14.13
75353;BMP280;76704;51.574;7.088;2024-03-29T09:25:06;72505.91;;;14.18
75353;BMP280;76704;51.574;7.088;2024-03-29T09:27:36;72561.31;;;14.17
75353;BMP280;76704;51.574;7.088;2024-03-29T09:30:04;72620.47;;;14.19
75353;BMP280;76704;51.574;7.088;2024-03-29T09:32:32;72922.81;;;14.25
75353;BMP280;76704;51.574;7.088;2024-03-29T09:35:00;73237.66;;;14.33
75353;BMP280;76704;51.574;7.088;2024-03-29T09:37:27;73437.41;;;14.39
75353;BMP280;76704;51.574;7.088;2024-03-29T09:39:54;73799.19;;;14.45
75353;BMP280;76704;51.574;7.088;2024-03-29T09:42:22;74039.53;;;14.53
75353;BMP280;76704;51.574;7.088;2024-03-29T09:44:51;74195.16;;;14.55
75353;BMP280;76704;51.574;7.088;2024-03-29T09:47:18;74440.88;;;14.61
75353;BMP280;76704;51.574;7.088;2024-03-29T09:49:46;74617.22;;;14.67
75353;BMP280;76704;51.574;7.088;2024-03-29T09:52:15;74889.34;;;14.69
75353;BMP280;76704;51.574;7.088;2024-03-29T09:54:42;74996.16;;;14.73
75353;BMP280;76704;51.574;7.088;2024-03-29T09:57:09;75047.59;;;14.78
75353;BMP280;76704;51.574;7.088;2024-03-29T09:59:36;75253.16;;;14.84
75353;BMP280;76704;51.574;7.088;2024-03-29T10:02:19;75268.19;;;14.83
75353;BMP280;76704;51.574;7.088;2024-03-29T10:04:57;75592.06;;;14.93
75353;BMP280;76704;51.574;7.088;2024-03-29T10:07:24;75849.97;;;14.97
75353;BMP280;76704;51.574;7.088;2024-03-29T10:09:52;76057.81;;;15.02
75353;BMP280;76704;51.574;7.088;2024-03-29T10:12:20;76307.78;;;14.99
75353;BMP280;76704;51.574;7.088;2024-03-29T10:14:46;76621.22;;;15.17
75353;BMP280;76704;51.574;7.088;2024-03-29T10:17:25;76958.94;;;15.24
75353;BMP280;76704;51.574;7.088;2024-03-29T10:19:52;77263.22;;;15.31
75353;BMP280;76704;51.574;7.088;2024-03-29T10:22:18;77568.53;;;15.36
75353;BMP280;76704;51.574;7.088;2024-03-29T10:24:44;77905.31;;;15.47
75353;BMP280;76704;51.574;7.088;2024-03-29T10:27:10;78050.97;;;15.52
75353;BMP280;76704;51.574;7.088;2024-03-29T10:29:36;78261.09;;;15.58
75353;BMP280;76704;51.574;7.088;2024-03-29T10:32:03;78471.97;;;15.61
75353;BMP280;76704;51.574;7.088;2024-03-29T10:34:30;78689.06;;;15.71
75353;BMP280;76704;51.574;7.088;2024-03-29T10:37:02;78931.81;;;15.78
75353;BMP280;76704;51.574;7.088;2024-03-29T10:39:30;79044.34;;;15.84
75353;BMP280;76704;51.574;7.088;2024-03-29T10:41:58;79225.66;;;15.86
75353;BMP280;76704;51.574;7.088;2024-03-29T10:44:25;79373.06;;;15.90
75353;BMP280;76704;51.574;7.088;2024-03-29T10:46:56;79519.59;;;15.95
75353;BMP280;76704;51.574;7.088;2024-03-29T10:49:23;79669.13;;;16.03
75353;BMP280;76704;51.574;7.088;2024-03-29T10:51:49;79845.19;;;16.05
75353;BMP280;76704;51.574;7.088;2024-03-29T10:54:17;79973.78;;;16.13
75353;BMP280;76704;51.574;7.088;2024-03-29T10:56:47;80048.34;;;16.17
75353;BMP280;76704;51.574;7.088;2024-03-29T10:59:26;80147.81;;;16.21
75353;BMP280;76704;51.574;7.088;2024-03-29T11:01:59;80326.94;;;16.21
75353;BMP280;76704;51.574;7.088;2024-03-29T11:04:33;80546.75;;;16.31
75353;BMP280;76704;51.574;7.088;2024-03-29T11:07:06;80744.97;;;16.36
75353;BMP280;76704;51.574;7.088;2024-03-29T11:09:33;80910.34;;;16.39
75353;BMP280;76704;51.574;7.088;2024-03-29T11:12:01;81029.88;;;16.46
75353;BMP280;76704;51.574;7.088;2024-03-29T11:14:40;81322.06;;;16.53
75353;BMP280;76704;51.574;7.088;2024-03-29T11:17:09;81902.13;;;16.64
75353;BMP280;76704;51.574;7.088;2024-03-29T11:19:39;82433.53;;;16.78
75353;BMP280;76704;51.574;7.088;2024-03-29T11:22:07;83234.06;;;16.94
75353;BMP280;76704;51.574;7.088;2024-03-29T11:24:34;83861.81;;;17.08
75353;BMP280;76704;51.574;7.088;2024-03-29T11:27:11;84409.84;;;17.24
75353;BMP280;76704;51.574;7.088;2024-03-29T11:29:41;85009.19;;;17.39
75353;BMP280;76704;51.574;7.088;2024-03-29T11:32:10;85743.25;;;17.54
75353;BMP280;76704;51.574;7.088;2024-03-29T11:34:44;86238.75;;;17.72
75353;BMP280;76704;51.574;7.088;2024-03-29T11:37:12;86857.50;;;17.90
75353;BMP280;76704;51.574;7.088;2024-03-29T11:39:49;87312.34;;;18.06
75353;BMP280;76704;51.574;7.088;2024-03-29T11:42:15;88110.81;;;18.26
75353;BMP280;76704;51.574;7.088;2024-03-29T11:44:41;88405.81;;;18.41
75353;BMP280;76704;51.574;7.088;2024-03-29T11:47:08;88692.75;;;18.56
75353;BMP280;76704;51.574;7.088;2024-03-29T11:49:35;88954.75;;;18.67
75353;BMP280;76704;51.574;7.088;2024-03-29T11:52:04;89023.38;;;18.79
75353;BMP280;76704;51.574;7.088;2024-03-29T11:54:39;89095.50;;;18.87
75353;BMP280;76704;51.574;7.088;2024-03-29T11:57:05;88281.13;;;18.80
75353;BMP280;76704;51.574;7.088;2024-03-29T11:59:32;88690.84;;;18.92
75353;BMP280;76704;51.574;7.088;2024-03-29T12:01:58;88775.22;;;18.98
75353;BMP280;76704;51.574;7.088;2024-03-29T12:04:27;88303.22;;;18.97
75353;BMP280;76704;51.574;7.088;2024-03-29T12:06:54;88454.25;;;19.06
75353;BMP280;76704;51.574;7.088;2024-03-29T12:09:27;87998.03;;;18.99
75353;BMP280;76704;51.574;7.088;2024-03-29T12:11:52;87983.63;;;19.03
75353;BMP280;76704;51.574;7.088;2024-03-29T12:14:19;87523.59;;;18.95
75353;BMP280;76704;51.574;7.088;2024-03-29T12:16:47;87566.88;;;19.03
75353;BMP280;76704;51.574;7.088;2024-03-29T12:19:24;87364.81;;;18.98
75353;BMP280;76704;51.574;7.088;2024-03-29T12:21:51;87342.94;;;19.00
75353;BMP280;76704;51.574;7.088;2024-03-29T12:24:18;86194.31;;;18.79
75353;BMP280;76704;51.574;7.088;2024-03-29T12:26:45;85691.16;;;18.75
75353;BMP280;76704;51.574;7.088;2024-03-29T12:29:11;85942.66;;;18.78
75353;BMP280;76704;51.574;7.088;2024-03-29T12:31:38;85685.31;;;18.71
75353;BMP280;76704;51.574;7.088;2024-03-29T12:34:05;85808.78;;;18.76
75353;BMP280;76704;51.574;7.088;2024-03-29T12:36:34;86037.25;;;18.78
75353;BMP280;76704;51.574;7.088;2024-03-29T12:38:59;85877.34;;;18.78
75353;BMP280;76704;51.574;7.088;2024-03-29T12:41:29;85719.78;;;18.74
75353;BMP280;76704;51.574;7.088;2024-03-29T12:43:55;85795.72;;;18.78
75353;BMP280;76704;51.574;7.088;2024-03-29T12:46:22;85876.44;;;18.82
75353;BMP280;76704;51.574;7.088;2024-03-29T12:48:57;85444.06;;;18.78
75353;BMP280;76704;51.574;7.088;2024-03-29T12:51:24;85189.56;;;18.70
75353;BMP280;76704;51.574;7.088;2024-03-29T12:53:52;85031.28;;;18.68
75353;BMP280;76704;51.574;7.088;2024-03-29T12:56:19;84856.09;;;18.65
75353;BMP280;76704;51.574;7.088;2024-03-29T12:58:46;84590.34;;;18.63
75353;BMP280;76704;51.574;7.088;2024-03-29T13:01:13;84618.69;;;18.66
75353;BMP280;76704;51.574;7.088;2024-03-29T13:03:41;84715.16;;;18.67
75353;BMP280;76704;51.574;7.088;2024-03-29T13:06:09;84955.97;;;18.75
75353;BMP280;76704;51.574;7.088;2024-03-29T13:08:36;84944.88;;;18.68
75353;BMP280;76704;51.574;7.088;2024-03-29T13:11:03;85331.47;;;18.84
75353;BMP280;76704;51.574;7.088;2024-03-29T13:13:32;86101.28;;;19.00
75353;BMP280;76704;51.574;7.088;2024-03-29T13:15:58;86445.00;;;19.14
75353;BMP280;76704;51.574;7.088;2024-03-29T13:18:24;86801.19;;;19.26
75353;BMP280;76704;51.574;7.088;2024-03-29T13:20:51;87370.72;;;19.40
75353;BMP280;76704;51.574;7.088;2024-03-29T13:23:17;88211.00;;;19.62
75353;BMP280;76704;51.574;7.088;2024-03-29T13:25:44;88468.47;;;19.73
75353;BMP280;76704;51.574;7.088;2024-03-29T13:28:11;89657.91;;;19.97
75353;BMP280;76704;51.574;7.088;2024-03-29T13:30:40;90367.91;;;20.22
75353;BMP280;76704;51.574;7.088;2024-03-29T13:33:10;90639.84;;;20.37
75353;BMP280;76704;51.574;7.088;2024-03-29T13:35:37;91238.72;;;20.57
75353;BMP280;76704;51.574;7.088;2024-03-29T13:38:05;91500.03;;;20.67
75353;BMP280;76704;51.574;7.088;2024-03-29T13:40:31;91733.56;;;20.81
75353;BMP280;76704;51.574;7.088;2024-03-29T13:42:58;91778.84;;;20.88
75353;BMP280;76704;51.574;7.088;2024-03-29T13:45:25;91351.44;;;20.90
75353;BMP280;76704;51.574;7.088;2024-03-29T13:47:56;91378.25;;;20.98
75353;BMP280;76704;51.574;7.088;2024-03-29T13:50:23;91103.97;;;20.97
75353;BMP280;76704;51.574;7.088;2024-03-29T13:52:48;90459.78;;;20.86
75353;BMP280;76704;51.574;7.088;2024-03-29T13:55:16;90452.28;;;20.88
75353;BMP280;76704;51.574;7.088;2024-03-29T13:57:42;90234.91;;;20.92
75353;BMP280;76704;51.574;7.088;2024-03-29T14:00:09;90768.97;;;21.04
75353;BMP280;76704;51.574;7.088;2024-03-29T14:02:40;90747.13;;;21.10
75353;BMP280;76704;51.574;7.088;2024-03-29T14:05:06;91587.53;;;21.29
75353;BMP280;76704;51.574;7.088;2024-03-29T14:07:33;91231.06;;;21.32
75353;BMP280;76704;51.574;7.088;2024-03-29T14:09:59;91738.41;;;21.43
75353;BMP280;76704;51.574;7.088;2024-03-29T14:12:30;91517.41;;;21.47
75353;BMP280;76704;51.574;7.088;2024-03-29T14:14:56;91249.09;;;21.47